Weston, Florida
Current Conditions -  °F | °C
As of 6:53 PM on Friday 31 Oct 2014 (Local Time) from KHWO Reporting Station
Broken Clouds Broken Clouds  
Wind Chill: 80°   Ceiling: 6000
Heat Index: 82°   Visibility: 10mi
Dew Point: 67°   Wind: 8mph
Humidity: 64%   Direction: 280°W
Pressure: 29.81"   Gusts: NA
Location:  26.11°N, 80.41°W
Report Text: KHWO 312253Z 28007KT 10SM FEW044 BKN060 27/19 A2981 RMK AO2 RAB19E28 SLP094 P0000 T02670194
Loading
Personal Weather Stations






























Interactive Weather Map
Tropical Storm Tracking
New forecast layout! Learn more

10-Day Weather Forecast

Advertisements
Track Severe Weather on mobile